createdAt,value
2018-03-14T00:02:24.739Z,7.67
2018-03-14T00:04:56.084Z,6.63
2018-03-14T00:07:27.204Z,7.00
2018-03-14T00:09:58.888Z,6.20
2018-03-14T00:12:30.380Z,6.87
2018-03-14T00:15:01.559Z,6.00
2018-03-14T00:17:32.876Z,5.20
2018-03-14T00:20:03.585Z,4.27
2018-03-14T00:22:35.594Z,4.10
2018-03-14T00:25:07.117Z,3.93
2018-03-14T00:27:38.014Z,4.10
2018-03-14T00:30:09.525Z,4.50
2018-03-14T00:32:40.894Z,4.00
2018-03-14T00:35:11.922Z,4.10
2018-03-14T00:37:43.560Z,4.37
2018-03-14T00:40:14.738Z,5.00
2018-03-14T00:42:45.789Z,4.60
2018-03-14T00:45:17.421Z,4.90
2018-03-14T00:47:48.706Z,4.03
2018-03-14T00:50:19.633Z,4.07
2018-03-14T00:52:50.869Z,5.20
2018-03-14T00:55:22.095Z,6.20
2018-03-14T00:57:53.411Z,5.97
2018-03-14T01:00:24.498Z,4.30
2018-03-14T01:02:55.612Z,4.00
2018-03-14T01:05:26.436Z,4.23
2018-03-14T01:07:57.323Z,4.37
2018-03-14T01:10:28.172Z,4.53
2018-03-14T01:12:59.654Z,5.10
2018-03-14T01:15:31.083Z,5.13
2018-03-14T01:18:02.931Z,5.03
2018-03-14T01:20:34.092Z,5.10
2018-03-14T01:23:05.147Z,5.10
2018-03-14T01:25:36.859Z,5.47
2018-03-14T01:28:08.045Z,5.33
2018-03-14T01:30:38.838Z,5.47
2018-03-14T01:33:10.273Z,6.03
2018-03-14T01:35:41.594Z,6.17
2018-03-14T01:38:12.722Z,6.23
2018-03-14T01:40:43.912Z,5.80
2018-03-14T01:43:15.922Z,5.87
2018-03-14T01:45:46.831Z,6.73
2018-03-14T01:48:26.198Z,6.60
2018-03-14T01:50:59.535Z,5.70
2018-03-14T01:53:31.941Z,6.57
2018-03-14T01:56:03.179Z,6.30
2018-03-14T01:58:34.602Z,6.70
2018-03-14T02:01:05.330Z,7.93
2018-03-14T02:03:36.987Z,7.83
2018-03-14T02:06:08.148Z,7.50
2018-03-14T02:08:39.220Z,7.77
2018-03-14T02:11:10.054Z,7.70
2018-03-14T02:13:41.057Z,8.73
2018-03-14T02:16:12.446Z,9.87
2018-03-14T02:18:43.174Z,9.30
2018-03-14T02:21:13.877Z,8.83
2018-03-14T02:23:46.830Z,9.67
2018-03-14T02:26:17.304Z,9.60
2018-03-14T02:28:47.666Z,9.23
2018-03-14T02:31:18.854Z,9.93
2018-03-14T02:33:50.241Z,9.77
2018-03-14T02:36:29.356Z,11.03
2018-03-14T02:38:59.537Z,9.80
2018-03-14T02:41:29.610Z,10.23
2018-03-14T02:44:00.248Z,10.53
2018-03-14T02:46:30.347Z,11.40
2018-03-14T02:49:00.502Z,10.60
2018-03-14T02:51:31.606Z,10.33
2018-03-14T02:54:01.622Z,10.30
2018-03-14T02:56:33.187Z,10.30
2018-03-14T02:59:04.843Z,10.80
2018-03-14T03:01:35.678Z,11.47
2018-03-14T03:04:06.563Z,10.40
2018-03-14T03:06:36.982Z,10.93
2018-03-14T03:09:07.113Z,10.77
2018-03-14T03:11:37.602Z,11.60
2018-03-14T03:14:08.231Z,11.27
2018-03-14T03:16:38.683Z,10.50
2018-03-14T03:19:09.255Z,10.98
2018-03-14T03:21:39.719Z,12.13
2018-03-14T03:24:10.053Z,11.27
2018-03-14T03:26:41.303Z,12.48
2018-03-14T03:29:11.586Z,13.07
2018-03-14T03:31:41.687Z,12.45
2018-03-14T03:34:12.150Z,12.10
2018-03-14T03:36:42.519Z,11.60
2018-03-14T03:39:12.903Z,12.02
2018-03-14T03:41:43.363Z,11.77
2018-03-14T03:44:13.421Z,11.70
2018-03-14T03:46:43.835Z,11.93
2018-03-14T03:49:14.221Z,12.15
2018-03-14T03:51:44.096Z,11.18
2018-03-14T03:54:14.320Z,11.57
2018-03-14T03:56:45.450Z,11.43
2018-03-14T03:59:15.515Z,11.75
2018-03-14T04:01:45.707Z,11.27
2018-03-14T04:04:16.546Z,10.95
2018-03-14T04:06:46.585Z,11.80
2018-03-14T04:09:16.594Z,11.90
2018-03-14T04:11:47.763Z,9.48
2018-03-14T04:14:17.764Z,10.88
2018-03-14T04:16:47.984Z,9.48
2018-03-14T04:19:17.921Z,10.48
2018-03-14T04:21:48.102Z,9.63
2018-03-14T04:24:19.297Z,9.93
2018-03-14T04:26:49.465Z,9.65
2018-03-14T04:29:20.108Z,10.38
2018-03-14T04:31:50.934Z,11.38
2018-03-14T04:34:21.911Z,10.77
2018-03-14T04:36:52.274Z,11.38
2018-03-14T04:39:22.243Z,11.02
2018-03-14T04:41:52.405Z,11.12
2018-03-14T04:44:22.749Z,12.20
2018-03-14T04:46:52.907Z,11.55
2018-03-14T04:49:23.120Z,11.57
2018-03-14T04:51:53.228Z,12.13
2018-03-14T04:54:24.415Z,12.27
2018-03-14T04:56:54.786Z,11.15
2018-03-14T04:59:24.796Z,11.93
2018-03-14T05:01:55.322Z,10.90
2018-03-14T05:04:27.207Z,11.45
2018-03-14T05:06:58.624Z,10.98
2018-03-14T05:09:29.009Z,11.15
2018-03-14T05:12:10.985Z,11.57
2018-03-14T05:14:42.692Z,10.70
2018-03-14T05:17:14.178Z,10.00
2018-03-14T05:19:45.312Z,10.75
2018-03-14T05:22:17.546Z,10.38
2018-03-14T05:24:48.224Z,10.07
2018-03-14T05:27:19.363Z,10.50
2018-03-14T05:29:50.149Z,10.20
2018-03-14T05:32:20.634Z,9.40
2018-03-14T05:34:52.215Z,9.57
2018-03-14T05:37:23.677Z,11.20
2018-03-14T05:39:55.486Z,10.93
2018-03-14T05:42:26.288Z,10.30
2018-03-14T05:44:57.426Z,9.68
2018-03-14T05:47:28.582Z,10.50
2018-03-14T05:50:01.151Z,9.95
2018-03-14T05:52:32.161Z,10.27
2018-03-14T05:55:03.479Z,11.12
2018-03-14T05:57:35.331Z,10.52
2018-03-14T06:00:07.319Z,10.52
2018-03-14T06:02:39.015Z,11.48
2018-03-14T06:05:11.470Z,11.30
2018-03-14T06:07:43.063Z,9.70
2018-03-14T06:10:15.540Z,10.02
2018-03-14T06:12:46.784Z,11.05
2018-03-14T06:15:18.392Z,10.38
2018-03-14T06:17:49.759Z,10.25
2018-03-14T06:26:18.102Z,11.25
2018-03-14T06:28:52.440Z,10.18
2018-03-14T06:31:23.628Z,9.60
2018-03-14T06:33:56.437Z,10.30
2018-03-14T06:36:31.011Z,9.50
2018-03-14T06:39:03.423Z,10.93
2018-03-14T06:41:35.474Z,10.35
2018-03-14T06:44:07.775Z,10.80
2018-03-14T06:46:38.511Z,10.30
2018-03-14T06:49:09.398Z,10.77
2018-03-14T06:51:41.345Z,10.75
2018-03-14T06:54:12.323Z,10.98
2018-03-14T06:56:43.535Z,11.07
2018-03-14T07:01:27.793Z,10.48
2018-03-14T07:06:15.313Z,10.48
2018-03-14T07:08:47.128Z,10.55
2018-03-14T07:11:18.394Z,12.32
2018-03-14T07:13:51.987Z,10.30
2018-03-14T07:16:25.592Z,10.40
2018-03-14T07:18:56.852Z,10.93
2018-03-14T07:21:31.420Z,9.95
2018-03-14T07:24:04.785Z,10.55
2018-03-14T07:26:36.895Z,10.45
2018-03-14T07:29:09.718Z,13.93
2018-03-14T07:31:41.682Z,11.63
2018-03-14T07:34:16.158Z,10.32
2018-03-14T07:36:47.787Z,10.45
2018-03-14T07:39:19.660Z,10.88
2018-03-14T07:41:51.649Z,10.50
2018-03-14T07:44:23.728Z,11.12
2018-03-14T07:46:55.331Z,10.70
2018-03-14T07:49:28.648Z,11.12
2018-03-14T07:51:59.752Z,10.95
2018-03-14T07:54:31.173Z,11.15
2018-03-14T07:57:02.211Z,10.60
2018-03-14T07:59:33.308Z,11.85
2018-03-14T08:02:04.158Z,10.75
2018-03-14T08:04:34.872Z,11.02
2018-03-14T08:07:06.290Z,10.97
2018-03-14T08:09:37.296Z,10.75
2018-03-14T08:12:08.062Z,10.53
2018-03-14T08:17:25.369Z,10.95
2018-03-14T08:19:58.765Z,11.10
2018-03-14T08:22:30.091Z,11.73
2018-03-14T08:25:02.551Z,11.30
2018-03-14T08:27:37.138Z,10.82
2018-03-14T08:30:11.788Z,11.00
2018-03-14T08:32:43.549Z,10.47
2018-03-14T08:35:18.011Z,11.67
2018-03-14T08:37:50.717Z,10.97
2018-03-14T08:40:22.083Z,10.27
2018-03-14T08:42:52.983Z,10.23
2018-03-14T08:45:25.106Z,10.47
2018-03-14T08:47:56.372Z,9.90
2018-03-14T08:50:27.415Z,10.10
2018-03-14T08:52:58.240Z,10.27
2018-03-14T08:55:30.800Z,10.43
2018-03-14T08:58:13.677Z,10.50
2018-03-14T09:00:46.022Z,11.93
2018-03-14T09:03:18.670Z,10.97
2018-03-14T09:05:49.926Z,9.90
2018-03-14T09:08:21.068Z,13.55
2018-03-14T09:10:51.924Z,10.70
2018-03-14T09:16:25.702Z,8.77
2018-03-14T09:18:59.430Z,8.50
2018-03-14T09:21:31.480Z,8.77
2018-03-14T09:24:13.822Z,8.10
2018-03-14T09:26:45.682Z,9.13
2018-03-14T09:29:16.917Z,8.80
2018-03-14T09:31:48.999Z,8.30
2018-03-14T09:34:22.210Z,7.37
2018-03-14T09:37:05.621Z,7.60
2018-03-14T09:39:37.563Z,6.77
2018-03-14T09:42:08.420Z,5.27
2018-03-14T09:44:43.381Z,5.60
2018-03-14T09:47:18.698Z,5.43
2018-03-14T09:52:34.790Z,5.83
2018-03-14T09:55:07.102Z,6.83
2018-03-14T09:57:38.199Z,6.40
2018-03-14T10:00:12.123Z,5.97
2018-03-14T10:02:45.023Z,6.73
2018-03-14T10:05:16.384Z,7.50
2018-03-14T10:07:49.880Z,6.37
2018-03-14T10:10:21.985Z,5.20
2018-03-14T10:12:54.110Z,5.13
2018-03-14T10:15:27.046Z,5.97
2018-03-14T10:17:58.549Z,6.30
2018-03-14T10:20:29.086Z,5.90
2018-03-14T10:23:01.730Z,5.70
2018-03-14T10:25:35.343Z,5.60
2018-03-14T10:28:08.701Z,5.13
2018-03-14T10:30:40.110Z,6.07
2018-03-14T10:33:15.116Z,5.80
2018-03-14T10:35:49.865Z,5.03
2018-03-14T10:38:23.225Z,4.77
2018-03-14T10:40:57.212Z,4.63
2018-03-14T10:43:27.674Z,8.40
2018-03-14T10:45:59.329Z,6.18
2018-03-14T10:48:42.182Z,6.07
2018-03-14T10:51:19.666Z,4.83
2018-03-14T10:53:51.591Z,4.93
2018-03-14T10:56:31.100Z,5.33
2018-03-14T11:02:01.109Z,5.70
2018-03-14T11:04:35.533Z,5.27
2018-03-14T11:07:06.926Z,5.10
2018-03-14T11:09:42.784Z,4.67
2018-03-14T11:12:21.032Z,5.87
2018-03-14T11:14:52.824Z,5.87
2018-03-14T11:17:25.787Z,4.97
2018-03-14T11:20:02.062Z,5.23
2018-03-14T11:22:49.484Z,6.50
2018-03-14T11:25:20.434Z,6.80
2018-03-14T11:27:56.830Z,6.40
2018-03-14T11:30:59.874Z,6.10
2018-03-14T11:33:41.719Z,6.43
2018-03-14T11:36:41.589Z,6.93
2018-03-14T11:42:04.170Z,6.90
2018-03-14T11:44:41.586Z,6.63
2018-03-14T11:47:15.786Z,6.37
2018-03-14T11:49:53.376Z,7.00
2018-03-14T11:52:42.797Z,6.63
2018-03-14T11:55:36.419Z,7.90
2018-03-14T11:58:39.845Z,8.10
2018-03-14T12:10:50.897Z,7.77
2018-03-14T12:13:51.119Z,7.30
2018-03-14T12:16:28.963Z,7.70
2018-03-14T12:19:05.091Z,7.97
2018-03-14T12:22:10.680Z,8.33
2018-03-14T12:24:47.212Z,8.07
2018-03-14T12:27:32.217Z,7.40
2018-03-14T12:30:09.843Z,8.30
2018-03-14T12:32:56.770Z,7.80
2018-03-14T12:35:37.646Z,8.13
2018-03-14T12:38:12.985Z,7.77
2018-03-14T12:43:50.799Z,8.40
2018-03-14T12:46:41.562Z,7.60
2018-03-14T12:52:17.549Z,7.90
2018-03-14T12:56:25.093Z,8.03
2018-03-14T12:58:58.433Z,9.80
2018-03-14T13:01:56.439Z,7.53
2018-03-14T13:04:45.322Z,6.17
2018-03-14T13:07:18.532Z,7.37
2018-03-14T13:12:33.932Z,6.67
2018-03-14T13:15:08.461Z,5.97
2018-03-14T13:17:40.105Z,6.43
2018-03-14T13:20:10.913Z,6.00
2018-03-14T13:22:55.902Z,6.65
2018-03-14T13:25:43.627Z,6.13
2018-03-14T13:28:21.210Z,5.70
2018-03-14T13:34:07.971Z,5.33
2018-03-14T13:36:43.013Z,5.57
2018-03-14T13:39:14.063Z,5.37
2018-03-14T13:44:50.019Z,6.85
2018-03-14T13:47:41.023Z,6.40
2018-03-14T13:50:19.681Z,5.23
2018-03-14T13:56:27.153Z,4.60
2018-03-14T13:59:01.723Z,4.70
2018-03-14T14:02:11.674Z,5.05
2018-03-14T14:05:01.611Z,4.57
2018-03-14T14:07:46.392Z,4.07
2018-03-14T14:10:27.862Z,4.23
2018-03-14T14:13:02.571Z,3.97
2018-03-14T14:15:50.948Z,4.30
2018-03-14T14:18:30.089Z,5.03
2018-03-14T14:21:05.579Z,4.33
2018-03-14T14:23:50.175Z,3.97
2018-03-14T14:27:01.179Z,4.23
2018-03-14T14:29:36.938Z,4.30
2018-03-14T14:32:22.289Z,4.60
2018-03-14T14:34:55.818Z,4.73
2018-03-14T14:37:26.630Z,4.87
2018-03-14T14:39:58.111Z,3.33
2018-03-14T14:42:35.166Z,4.67
2018-03-14T14:45:09.607Z,3.90
2018-03-14T14:47:43.759Z,3.67
2018-03-14T14:50:16.681Z,4.40
2018-03-14T14:52:51.524Z,3.70
2018-03-14T14:55:55.446Z,4.40
2018-03-14T14:58:29.442Z,4.37
2018-03-14T15:01:02.181Z,4.30
2018-03-14T15:03:35.111Z,4.27
2018-03-14T15:06:07.704Z,4.60
2018-03-14T15:08:40.508Z,4.43
2018-03-14T15:11:13.398Z,4.30
2018-03-14T15:13:59.586Z,4.20
2018-03-14T15:16:29.937Z,4.27
2018-03-14T15:19:25.182Z,4.30
2018-03-14T15:24:51.888Z,4.00
2018-03-14T15:27:26.134Z,5.10
2018-03-14T15:29:57.228Z,4.97
2018-03-14T15:32:28.303Z,4.60
2018-03-14T15:35:01.984Z,4.77
2018-03-14T15:37:34.940Z,4.50
2018-03-14T15:40:09.936Z,5.00
2018-03-14T15:42:50.875Z,5.30
2018-03-14T15:46:00.628Z,5.37
2018-03-14T15:49:10.592Z,5.45
2018-03-14T15:51:57.161Z,4.47
2018-03-14T15:54:45.383Z,4.50
2018-03-14T15:57:15.992Z,5.40
2018-03-14T16:09:16.552Z,4.83
2018-03-14T16:15:09.262Z,4.20
2018-03-14T16:17:41.520Z,4.30
2018-03-14T16:20:14.449Z,4.10
2018-03-14T16:26:02.688Z,4.07
2018-03-14T16:28:34.931Z,3.73
2018-03-14T16:31:08.244Z,4.10
2018-03-14T16:37:09.994Z,3.57
2018-03-14T16:39:53.946Z,3.87
2018-03-14T16:42:25.138Z,4.03
2018-03-14T16:45:10.670Z,4.30
2018-03-14T16:47:42.308Z,3.60
2018-03-14T16:50:28.514Z,4.23
2018-03-14T16:53:08.676Z,4.20
2018-03-14T16:56:05.665Z,4.80
2018-03-14T17:05:10.617Z,3.93
2018-03-14T17:10:37.304Z,3.93
2018-03-14T17:13:10.840Z,4.17
2018-03-14T17:15:42.150Z,3.83
2018-03-14T17:18:14.188Z,4.40
2018-03-14T17:20:46.556Z,4.43
2018-03-14T17:23:17.593Z,3.90
2018-03-14T17:25:49.290Z,4.67
2018-03-14T17:28:22.353Z,3.80
2018-03-14T17:30:58.503Z,4.20
2018-03-14T17:33:29.112Z,4.30
2018-03-14T17:36:02.172Z,4.00
2018-03-14T17:38:48.883Z,4.10
2018-03-14T17:41:24.551Z,4.20
2018-03-14T17:43:56.722Z,4.60
2018-03-14T17:46:32.385Z,3.90
2018-03-14T17:49:03.646Z,4.60
2018-03-14T17:51:34.093Z,4.00
2018-03-14T17:54:09.071Z,3.77
2018-03-14T17:56:42.855Z,3.43
2018-03-14T17:59:13.296Z,4.07
2018-03-14T18:01:44.689Z,4.03
2018-03-14T18:04:19.702Z,4.07
2018-03-14T18:06:51.931Z,3.90
2018-03-14T18:09:24.069Z,4.60
2018-03-14T18:11:57.097Z,4.27
2018-03-14T18:14:29.705Z,4.40
2018-03-14T18:17:00.065Z,4.20
2018-03-14T18:19:30.971Z,5.47
2018-03-14T18:22:03.311Z,5.40
2018-03-14T18:24:35.650Z,4.00
2018-03-14T18:27:09.953Z,4.50
2018-03-14T18:29:40.211Z,4.73
2018-03-14T18:32:11.963Z,4.73
2018-03-14T18:34:44.800Z,4.07
2018-03-14T18:37:17.781Z,4.13
2018-03-14T18:39:51.714Z,4.33
2018-03-14T18:42:28.143Z,5.00
2018-03-14T18:45:02.088Z,7.40
2018-03-14T18:47:34.229Z,5.27
2018-03-14T18:50:11.567Z,6.40
2018-03-14T18:52:46.579Z,5.00
2018-03-14T18:55:17.206Z,6.23
2018-03-14T18:58:02.077Z,4.57
2018-03-14T19:00:49.097Z,5.17
2018-03-14T19:03:24.441Z,4.43
2018-03-14T19:06:05.280Z,6.17
2018-03-14T19:08:40.403Z,6.53
2018-03-14T19:11:14.368Z,6.53
2018-03-14T19:13:45.613Z,8.00
2018-03-14T19:16:20.009Z,12.10
2018-03-14T19:19:04.579Z,7.63
2018-03-14T19:24:43.241Z,6.87
2018-03-14T19:27:19.888Z,8.30
2018-03-14T19:29:51.807Z,6.87
2018-03-14T19:32:38.690Z,10.57
2018-03-14T19:35:32.734Z,8.93
2018-03-14T19:40:49.523Z,7.27
2018-03-14T19:43:20.316Z,6.30
2018-03-14T19:45:50.571Z,5.30
2018-03-14T19:48:35.641Z,6.60
2018-03-14T19:51:06.159Z,5.10
2018-03-14T19:53:38.080Z,6.60
2018-03-14T19:56:09.228Z,5.90
2018-03-14T20:01:44.115Z,5.67
2018-03-14T20:04:30.920Z,5.50
2018-03-14T20:07:02.596Z,4.43
2018-03-14T20:09:39.597Z,5.18
2018-03-14T20:12:13.769Z,4.72
2018-03-14T20:14:45.759Z,6.50
2018-03-14T20:17:16.926Z,5.40
2018-03-14T20:20:03.897Z,5.10
2018-03-14T20:22:35.045Z,5.65
2018-03-14T20:25:08.356Z,6.47
2018-03-14T20:27:41.051Z,6.83
2018-03-14T20:30:28.540Z,7.70
2018-03-14T20:32:59.755Z,5.67
2018-03-14T20:35:32.144Z,5.20
2018-03-14T20:38:08.099Z,6.20
2018-03-14T20:40:42.429Z,6.37
2018-03-14T20:43:13.565Z,6.68
2018-03-14T20:45:51.668Z,6.22
2018-03-14T20:48:24.172Z,6.07
2018-03-14T20:50:54.943Z,5.35
2018-03-14T20:53:30.074Z,5.03
2018-03-14T20:56:26.533Z,5.70
2018-03-14T20:59:01.396Z,5.40
2018-03-14T21:04:19.663Z,6.12
2018-03-14T21:06:50.611Z,5.95
2018-03-14T21:09:23.559Z,5.43
2018-03-14T21:11:54.071Z,6.78
2018-03-14T21:14:25.063Z,5.32
2018-03-14T21:16:57.432Z,6.15
2018-03-14T21:19:31.842Z,6.03
2018-03-14T21:22:04.333Z,6.25
2018-03-14T21:24:34.742Z,6.53
2018-03-14T21:27:08.088Z,5.93
2018-03-14T21:29:38.758Z,6.72
2018-03-14T21:32:09.354Z,6.60
2018-03-14T21:34:40.026Z,7.20
2018-03-14T21:37:11.036Z,6.30
2018-03-14T21:39:41.415Z,7.18
2018-03-14T21:42:11.778Z,8.00
2018-03-14T21:44:42.424Z,7.85
2018-03-14T21:47:12.885Z,7.82
2018-03-14T21:49:44.566Z,8.23
2018-03-14T21:52:16.222Z,8.60
2018-03-14T21:54:51.104Z,8.73
2018-03-14T21:57:23.079Z,9.40
2018-03-14T21:59:53.585Z,8.32
2018-03-14T22:02:24.408Z,8.30
2018-03-14T22:04:54.930Z,8.13
2018-03-14T22:07:25.502Z,8.73
2018-03-14T22:09:56.212Z,8.65
2018-03-14T22:12:26.545Z,8.20
2018-03-14T22:14:57.398Z,9.05
2018-03-14T22:17:27.912Z,9.10
2018-03-14T22:19:58.509Z,9.68
2018-03-14T22:22:29.369Z,8.33
2018-03-14T22:25:00.765Z,8.80
2018-03-14T22:27:31.288Z,8.73
2018-03-14T22:30:04.156Z,8.60
2018-03-14T22:32:34.783Z,8.77
2018-03-14T22:35:05.238Z,8.80
2018-03-14T22:37:36.464Z,8.30
2018-03-14T22:40:07.416Z,9.65
2018-03-14T22:42:37.936Z,8.32
2018-03-14T22:45:09.132Z,8.68
2018-03-14T22:47:40.524Z,9.23
2018-03-14T22:50:11.267Z,8.38
2018-03-14T22:52:42.550Z,9.05
2018-03-14T22:55:12.998Z,8.32
2018-03-14T22:57:44.544Z,8.95
2018-03-14T23:00:18.622Z,8.18
2018-03-14T23:02:49.923Z,8.05
2018-03-14T23:05:20.582Z,8.73
2018-03-14T23:07:51.913Z,8.93
2018-03-14T23:10:22.763Z,7.50
2018-03-14T23:12:54.058Z,9.05
2018-03-14T23:15:24.591Z,7.97
2018-03-14T23:17:55.182Z,8.13
2018-03-14T23:20:28.042Z,8.85
2018-03-14T23:22:58.438Z,7.97
2018-03-14T23:25:29.101Z,8.20
2018-03-14T23:28:00.103Z,7.45
2018-03-14T23:30:31.457Z,7.62
2018-03-14T23:33:02.065Z,8.05
2018-03-14T23:35:32.941Z,8.45
2018-03-14T23:38:03.507Z,8.60
2018-03-14T23:40:34.267Z,8.48
2018-03-14T23:43:06.012Z,8.68
2018-03-14T23:45:37.473Z,8.52
2018-03-14T23:48:08.041Z,8.88
2018-03-14T23:50:38.751Z,9.68
2018-03-14T23:53:09.331Z,8.85
2018-03-14T23:55:39.915Z,9.02
2018-03-14T23:58:10.647Z,8.90
